createdAt,value
2018-12-14T00:02:27.376Z,75.70
2018-12-14T00:04:55.809Z,75.30
2018-12-14T00:07:24.233Z,75.60
2018-12-14T00:09:52.685Z,75.50
2018-12-14T00:12:21.213Z,75.20
2018-12-14T00:14:49.649Z,75.50
2018-12-14T00:17:18.057Z,74.50
2018-12-14T00:19:46.477Z,74.50
2018-12-14T00:22:14.885Z,74.60
2018-12-14T00:24:43.345Z,75.20
2018-12-14T00:27:12.073Z,74.60
2018-12-14T00:29:40.766Z,74.50
2018-12-14T00:32:09.218Z,74.50
2018-12-14T00:34:37.640Z,74.60
2018-12-14T00:37:06.043Z,73.40
2018-12-14T00:39:35.111Z,74.00
2018-12-14T00:42:03.535Z,74.00
2018-12-14T00:44:31.953Z,73.90
2018-12-14T00:47:00.352Z,74.10
2018-12-14T00:49:28.780Z,73.40
2018-12-14T00:51:57.213Z,73.90
2018-12-14T00:54:25.651Z,73.90
2018-12-14T00:56:54.087Z,73.50
2018-12-14T00:59:22.516Z,72.20
2018-12-14T01:01:50.932Z,72.30
2018-12-14T01:04:19.361Z,72.90
2018-12-14T01:06:47.768Z,72.70
2018-12-14T01:09:16.189Z,72.70
2018-12-14T01:11:44.604Z,72.70
2018-12-14T01:14:13.026Z,72.70
2018-12-14T01:16:41.434Z,73.00
2018-12-14T01:19:09.885Z,73.00
2018-12-14T01:21:38.291Z,72.00
2018-12-14T01:24:06.717Z,72.20
2018-12-14T01:26:35.129Z,72.30
2018-12-14T01:29:03.576Z,72.30
2018-12-14T01:31:31.986Z,72.30
2018-12-14T01:34:00.500Z,72.30
2018-12-14T01:36:28.886Z,72.60
2018-12-14T01:38:57.278Z,72.70
2018-12-14T01:41:25.665Z,71.70
2018-12-14T01:43:54.062Z,71.60
2018-12-14T01:46:22.442Z,71.80
2018-12-14T01:48:50.841Z,71.70
2018-12-14T01:51:19.216Z,72.10
2018-12-14T01:53:47.616Z,72.40
2018-12-14T01:56:16.001Z,72.50
2018-12-14T01:58:44.392Z,72.20
2018-12-14T02:01:12.768Z,72.20
2018-12-14T02:03:41.149Z,70.70
2018-12-14T02:06:09.547Z,72.10
2018-12-14T02:08:37.917Z,71.00
2018-12-14T02:11:06.309Z,71.90
2018-12-14T02:13:34.677Z,72.20
2018-12-14T02:16:03.065Z,72.10
2018-12-14T02:18:31.541Z,72.90
2018-12-14T02:20:59.925Z,72.20
2018-12-14T02:23:28.336Z,72.40
2018-12-14T02:25:56.828Z,71.90
2018-12-14T02:28:25.210Z,70.90
2018-12-14T02:30:54.458Z,70.50
2018-12-14T02:33:22.888Z,70.70
2018-12-14T02:35:51.313Z,70.50
2018-12-14T02:38:19.725Z,70.50
2018-12-14T02:40:48.178Z,71.20
2018-12-14T02:43:16.810Z,72.00
2018-12-14T02:45:45.335Z,71.20
2018-12-14T02:48:13.738Z,71.10
2018-12-14T02:50:42.298Z,71.20
2018-12-14T02:53:10.705Z,71.20
2018-12-14T02:55:39.137Z,71.40
2018-12-14T02:58:07.549Z,71.10
2018-12-14T03:00:35.982Z,71.50
2018-12-14T03:03:04.506Z,71.40
2018-12-14T03:05:33.061Z,71.70
2018-12-14T03:08:01.495Z,71.20
2018-12-14T03:10:29.920Z,70.40
2018-12-14T03:12:58.327Z,70.40
2018-12-14T03:15:26.753Z,70.50
2018-12-14T03:17:55.165Z,70.80
2018-12-14T03:20:23.586Z,70.70
2018-12-14T03:22:51.989Z,71.20
2018-12-14T03:25:20.602Z,71.70
2018-12-14T03:27:49.011Z,71.50
2018-12-14T03:30:17.435Z,72.40
2018-12-14T03:32:45.830Z,71.80
2018-12-14T03:35:14.328Z,71.90
2018-12-14T03:37:42.717Z,71.80
2018-12-14T03:40:11.105Z,71.70
2018-12-14T03:42:39.479Z,71.80
2018-12-14T03:45:08.102Z,71.70
2018-12-14T03:47:36.905Z,71.70
2018-12-14T03:50:05.929Z,71.40
2018-12-14T03:52:34.311Z,70.30
2018-12-14T03:55:02.813Z,71.20
2018-12-14T03:57:31.186Z,70.70
2018-12-14T03:59:59.584Z,71.40
2018-12-14T04:02:27.966Z,71.40
2018-12-14T04:04:56.430Z,71.70
2018-12-14T04:07:24.792Z,72.00
2018-12-14T04:09:53.190Z,71.90
2018-12-14T04:12:21.609Z,71.90
2018-12-14T04:14:50.011Z,71.60
2018-12-14T04:17:18.450Z,72.00
2018-12-14T04:19:46.841Z,71.90
2018-12-14T04:22:15.221Z,72.40
2018-12-14T04:24:43.611Z,70.80
2018-12-14T04:27:12.025Z,71.50
2018-12-14T04:29:40.605Z,71.80
2018-12-14T04:32:09.018Z,71.20
2018-12-14T04:34:37.394Z,70.50
2018-12-14T04:37:05.799Z,70.30
2018-12-14T04:39:34.176Z,70.30
2018-12-14T04:42:02.585Z,70.30
2018-12-14T04:44:30.974Z,70.80
2018-12-14T04:46:59.694Z,70.30
2018-12-14T04:49:28.389Z,70.30
2018-12-14T04:51:56.838Z,70.80
2018-12-14T04:54:25.267Z,70.30
2018-12-14T04:56:53.665Z,70.20
2018-12-14T04:59:22.045Z,70.20
2018-12-14T05:01:50.441Z,70.80
2018-12-14T05:04:18.817Z,70.90
2018-12-14T05:06:47.263Z,71.00
2018-12-14T05:09:15.633Z,71.20
2018-12-14T05:11:44.033Z,71.40
2018-12-14T05:14:12.419Z,71.30
2018-12-14T05:16:40.885Z,71.90
2018-12-14T05:19:09.253Z,71.60
2018-12-14T05:21:38.377Z,71.50
2018-12-14T05:24:06.752Z,70.90
2018-12-14T05:26:35.257Z,70.70
2018-12-14T05:29:03.629Z,70.60
2018-12-14T05:31:32.032Z,70.80
2018-12-14T05:34:00.425Z,70.60
2018-12-14T05:36:28.934Z,70.50
2018-12-14T05:38:57.437Z,70.50
2018-12-14T05:41:25.916Z,70.90
2018-12-14T05:43:54.291Z,70.30
2018-12-14T05:46:22.677Z,70.30
2018-12-14T05:48:51.137Z,70.00
2018-12-14T05:51:19.594Z,70.20
2018-12-14T05:53:48.098Z,70.30
2018-12-14T05:56:16.545Z,70.20
2018-12-14T05:58:44.960Z,70.30
2018-12-14T06:01:13.389Z,70.40
2018-12-14T06:03:42.116Z,70.40
2018-12-14T06:06:10.896Z,69.90
2018-12-14T06:08:39.287Z,70.40
2018-12-14T06:11:07.797Z,71.10
2018-12-14T06:13:36.195Z,71.90
2018-12-14T06:16:04.610Z,71.70
2018-12-14T06:18:33.000Z,72.00
2018-12-14T06:21:01.409Z,72.20
2018-12-14T06:23:29.890Z,72.30
2018-12-14T06:25:58.349Z,71.10
2018-12-14T06:28:26.730Z,70.00
2018-12-14T06:30:55.157Z,70.30
2018-12-14T06:33:23.549Z,69.30
2018-12-14T06:35:51.968Z,69.60
2018-12-14T06:38:20.485Z,69.80
2018-12-14T06:40:48.884Z,69.40
2018-12-14T06:43:17.341Z,69.30
2018-12-14T06:45:45.742Z,69.60
2018-12-14T06:48:14.137Z,70.00
2018-12-14T06:50:42.669Z,68.90
2018-12-14T06:53:11.293Z,69.10
2018-12-14T06:55:39.713Z,69.40
2018-12-14T06:58:08.124Z,69.90
2018-12-14T07:00:36.518Z,68.90
2018-12-14T07:03:04.945Z,68.50
2018-12-14T07:05:33.323Z,68.50
2018-12-14T07:08:01.713Z,68.70
2018-12-14T07:10:30.094Z,69.10
2018-12-14T07:12:58.513Z,69.00
2018-12-14T07:15:26.885Z,68.90
2018-12-14T07:17:55.297Z,69.10
2018-12-14T07:20:23.665Z,69.70
2018-12-14T07:22:52.106Z,69.10
2018-12-14T07:25:20.474Z,69.20
2018-12-14T07:27:48.876Z,68.70
2018-12-14T07:30:17.352Z,68.80
2018-12-14T07:32:45.808Z,68.60
2018-12-14T07:35:14.221Z,69.30
2018-12-14T07:37:42.653Z,69.40
2018-12-14T07:40:11.061Z,69.20
2018-12-14T07:42:39.499Z,69.10
2018-12-14T07:45:08.029Z,69.60
2018-12-14T07:47:36.469Z,69.90
2018-12-14T07:50:05.722Z,69.80
2018-12-14T07:52:34.152Z,69.80
2018-12-14T07:55:02.648Z,69.90
2018-12-14T07:57:31.069Z,70.00
2018-12-14T07:59:59.509Z,70.40
2018-12-14T08:02:27.937Z,69.10
2018-12-14T08:04:56.350Z,69.50
2018-12-14T08:07:24.786Z,69.80
2018-12-14T08:09:53.276Z,69.10
2018-12-14T08:12:21.697Z,69.20
2018-12-14T08:14:50.159Z,68.90
2018-12-14T08:17:18.651Z,69.70
2018-12-14T08:19:47.075Z,69.50
2018-12-14T08:22:15.538Z,69.40
2018-12-14T08:24:43.946Z,70.10
2018-12-14T08:27:12.377Z,69.70
2018-12-14T08:29:40.809Z,69.50
2018-12-14T08:32:09.241Z,69.80
2018-12-14T08:34:37.618Z,70.00
2018-12-14T08:37:06.135Z,69.60
2018-12-14T08:39:34.513Z,69.00
2018-12-14T08:42:02.913Z,68.60
2018-12-14T08:44:31.289Z,68.60
2018-12-14T08:46:59.729Z,68.10
2018-12-14T08:49:28.104Z,68.70
2018-12-14T08:51:56.508Z,68.90
2018-12-14T08:54:24.900Z,68.30
2018-12-14T08:56:53.293Z,68.10
2018-12-14T08:59:21.703Z,68.70
2018-12-14T09:01:50.206Z,68.40
2018-12-14T09:04:18.622Z,68.80
2018-12-14T09:06:47.043Z,68.20
2018-12-14T09:09:15.574Z,68.10
2018-12-14T09:11:44.036Z,67.70
2018-12-14T09:14:12.451Z,67.50
2018-12-14T09:16:40.871Z,67.60
2018-12-14T09:19:09.298Z,67.00
2018-12-14T09:21:37.734Z,67.60
2018-12-14T09:24:06.341Z,67.50
2018-12-14T09:26:34.748Z,67.40
2018-12-14T09:29:03.711Z,66.70
2018-12-14T09:31:32.581Z,67.10
2018-12-14T09:34:01.023Z,66.80
2018-12-14T09:36:29.407Z,66.70
2018-12-14T09:38:57.828Z,67.50
2018-12-14T09:41:26.216Z,66.80
2018-12-14T09:43:54.642Z,66.90
2018-12-14T09:46:23.254Z,66.80
2018-12-14T09:48:51.698Z,66.70
2018-12-14T09:51:20.127Z,66.90
2018-12-14T09:53:48.609Z,67.10
2018-12-14T09:56:16.985Z,66.90
2018-12-14T09:58:45.430Z,66.70
2018-12-14T10:01:14.480Z,67.20
2018-12-14T10:03:43.348Z,66.90
2018-12-14T10:06:15.676Z,66.80
2018-12-14T10:08:42.147Z,66.90
2018-12-14T10:11:10.769Z,66.90
2018-12-14T10:13:39.297Z,66.80
2018-12-14T10:16:08.006Z,66.70
2018-12-14T10:18:37.082Z,67.60
2018-12-14T10:21:05.582Z,66.80
2018-12-14T10:23:34.046Z,66.80
2018-12-14T10:26:02.429Z,66.30
2018-12-14T10:28:30.818Z,66.70
2018-12-14T10:30:59.246Z,66.70
2018-12-14T10:33:27.695Z,66.70
2018-12-14T10:35:56.146Z,66.60
2018-12-14T10:38:24.563Z,66.60
2018-12-14T10:40:52.990Z,66.70
2018-12-14T10:43:21.476Z,66.10
2018-12-14T10:45:50.102Z,65.40
2018-12-14T10:48:18.549Z,65.80
2018-12-14T10:50:47.096Z,66.60
2018-12-14T10:53:15.517Z,65.90
2018-12-14T10:55:44.029Z,66.40
2018-12-14T10:58:12.545Z,65.70
2018-12-14T11:00:46.493Z,65.40
2018-12-14T11:03:14.910Z,65.80
2018-12-14T11:05:43.326Z,66.10
2018-12-14T11:08:11.854Z,66.60
2018-12-14T11:10:40.255Z,66.50
2018-12-14T11:13:08.686Z,66.70
2018-12-14T11:15:37.227Z,66.70
2018-12-14T11:18:05.685Z,66.30
2018-12-14T11:20:34.079Z,66.80
2018-12-14T11:23:02.478Z,66.50
2018-12-14T11:25:30.908Z,66.50
2018-12-14T11:27:59.339Z,66.40
2018-12-14T11:30:27.736Z,65.70
2018-12-14T11:32:56.200Z,65.20
2018-12-14T11:35:24.589Z,65.10
2018-12-14T11:37:53.139Z,64.60
2018-12-14T11:40:21.550Z,65.70
2018-12-14T11:42:50.011Z,66.00
2018-12-14T11:45:18.408Z,66.00
2018-12-14T11:47:46.798Z,65.40
2018-12-14T11:50:15.214Z,65.70
2018-12-14T11:52:43.640Z,65.60
2018-12-14T11:55:12.165Z,66.00
2018-12-14T11:57:40.588Z,65.70
2018-12-14T12:00:13.739Z,65.60
2018-12-14T12:02:43.287Z,65.40
2018-12-14T12:05:12.092Z,66.50
2018-12-14T12:07:41.718Z,66.60
2018-12-14T12:10:10.952Z,66.60
2018-12-14T12:12:39.691Z,66.70
2018-12-14T12:15:09.652Z,66.80
2018-12-14T12:17:39.482Z,66.80
2018-12-14T12:20:08.720Z,66.70
2018-12-14T12:22:37.168Z,66.80
2018-12-14T12:25:05.750Z,66.60
2018-12-14T12:27:34.198Z,66.20
2018-12-14T12:30:02.881Z,66.80
2018-12-14T12:32:31.322Z,66.30
2018-12-14T12:34:59.745Z,65.60
2018-12-14T12:37:28.175Z,65.80
2018-12-14T12:39:56.577Z,65.40
2018-12-14T12:42:25.014Z,65.40
2018-12-14T12:44:53.405Z,66.10
2018-12-14T12:47:21.920Z,66.70
2018-12-14T12:49:50.362Z,66.40
2018-12-14T12:52:18.782Z,66.20
2018-12-14T12:54:47.254Z,65.40
2018-12-14T12:57:15.665Z,66.40
2018-12-14T12:59:44.150Z,66.70
2018-12-14T13:02:12.643Z,66.20
2018-12-14T13:04:41.293Z,65.80
2018-12-14T13:07:09.705Z,65.80
2018-12-14T13:09:38.178Z,65.90
2018-12-14T13:12:06.633Z,65.60
2018-12-14T13:14:39.947Z,65.70
2018-12-14T13:17:05.658Z,65.30
2018-12-14T13:19:34.091Z,66.20
2018-12-14T13:22:02.528Z,66.00
2018-12-14T13:24:30.935Z,66.30
2018-12-14T13:26:59.381Z,65.80
2018-12-14T13:29:27.801Z,65.80
2018-12-14T13:31:56.253Z,65.30
2018-12-14T13:34:24.638Z,65.80
2018-12-14T13:36:53.029Z,65.30
2018-12-14T13:39:21.480Z,65.50
2018-12-14T13:41:49.972Z,66.50
2018-12-14T13:44:18.382Z,66.40
2018-12-14T13:46:46.783Z,66.70
2018-12-14T13:49:15.282Z,66.50
2018-12-14T13:51:43.658Z,65.80
2018-12-14T13:54:12.062Z,65.30
2018-12-14T13:56:40.425Z,65.00
2018-12-14T13:59:08.827Z,65.60
2018-12-14T14:01:37.233Z,65.20
2018-12-14T14:04:05.668Z,65.30
2018-12-14T14:06:34.078Z,65.10
2018-12-14T14:09:03.709Z,64.80
2018-12-14T14:11:32.109Z,65.30
2018-12-14T14:14:00.530Z,65.70
2018-12-14T14:16:28.918Z,65.70
2018-12-14T14:18:57.387Z,64.70
2018-12-14T14:21:25.804Z,65.30
2018-12-14T14:23:54.226Z,65.20
2018-12-14T14:26:22.602Z,65.00
2018-12-14T14:28:50.994Z,64.60
2018-12-14T14:31:19.554Z,66.00
2018-12-14T14:33:47.975Z,66.50
2018-12-14T14:36:16.393Z,65.80
2018-12-14T14:38:44.833Z,65.80
2018-12-14T14:41:13.225Z,66.40
2018-12-14T14:43:41.662Z,66.50
2018-12-14T14:46:10.065Z,66.00
2018-12-14T14:48:38.481Z,65.90
2018-12-14T14:51:07.610Z,66.60
2018-12-14T14:53:36.027Z,66.50
2018-12-14T14:56:04.500Z,66.60
2018-12-14T14:58:32.930Z,66.60
2018-12-14T15:01:01.350Z,66.20
2018-12-14T15:03:29.932Z,65.70
2018-12-14T15:05:58.373Z,66.60
2018-12-14T15:08:26.831Z,67.30
2018-12-14T15:10:55.250Z,66.50
2018-12-14T15:13:25.889Z,66.50
2018-12-14T15:15:54.294Z,66.40
2018-12-14T15:18:22.733Z,67.20
2018-12-14T15:20:51.181Z,67.10
2018-12-14T15:23:19.605Z,67.10
2018-12-14T15:25:48.062Z,66.90
2018-12-14T15:28:16.562Z,66.50
2018-12-14T15:30:44.993Z,66.90
2018-12-14T15:33:13.374Z,66.40
2018-12-14T15:35:41.796Z,66.30
2018-12-14T15:38:10.198Z,66.50
2018-12-14T15:40:38.591Z,66.90
2018-12-14T15:43:06.954Z,67.00
2018-12-14T15:45:35.458Z,67.10
2018-12-14T15:48:04.025Z,66.90
2018-12-14T15:50:32.441Z,67.20
2018-12-14T15:53:00.874Z,68.30
2018-12-14T15:55:29.273Z,67.40
2018-12-14T15:57:57.682Z,67.60
2018-12-14T16:00:26.069Z,67.60
2018-12-14T16:02:54.569Z,67.90
2018-12-14T16:05:22.945Z,68.00
2018-12-14T16:07:51.329Z,67.80
2018-12-14T16:10:19.760Z,68.40
2018-12-14T16:12:48.236Z,68.70
2018-12-14T16:15:20.081Z,68.80
2018-12-14T16:17:47.095Z,68.50
2018-12-14T16:20:15.518Z,68.70
2018-12-14T16:22:43.998Z,68.90
2018-12-14T16:25:12.383Z,68.80
2018-12-14T16:27:40.755Z,68.70
2018-12-14T16:30:10.522Z,68.60
2018-12-14T16:32:38.902Z,68.50
2018-12-14T16:35:07.453Z,68.80
2018-12-14T16:37:35.841Z,68.60
2018-12-14T16:40:04.529Z,67.60
2018-12-14T16:42:32.886Z,68.00
2018-12-14T16:45:01.261Z,67.20
2018-12-14T16:47:29.626Z,68.00
2018-12-14T16:49:58.017Z,67.80
2018-12-14T16:52:26.397Z,67.90
2018-12-14T16:54:54.924Z,67.80
2018-12-14T16:57:23.288Z,67.80
2018-12-14T16:59:51.676Z,68.00
2018-12-14T17:02:20.170Z,68.40
2018-12-14T17:04:48.710Z,68.40
2018-12-14T17:07:17.102Z,68.30
2018-12-14T17:09:45.486Z,68.80
2018-12-14T17:12:13.869Z,68.50
2018-12-14T17:14:42.369Z,68.50
2018-12-14T17:17:10.790Z,68.90
2018-12-14T17:19:39.233Z,69.50
2018-12-14T17:22:07.622Z,69.40
2018-12-14T17:24:36.077Z,68.70
2018-12-14T17:27:04.593Z,69.00
2018-12-14T17:29:32.954Z,68.70
2018-12-14T17:32:01.403Z,69.10
2018-12-14T17:34:29.855Z,69.00
2018-12-14T17:36:58.266Z,69.60
2018-12-14T17:39:26.710Z,69.00
2018-12-14T17:41:55.154Z,69.20
2018-12-14T17:44:23.549Z,68.80
2018-12-14T17:46:52.166Z,68.80
2018-12-14T17:49:20.581Z,68.90
2018-12-14T17:51:49.345Z,68.80
2018-12-14T17:54:17.748Z,68.60
2018-12-14T17:56:46.182Z,69.10
2018-12-14T17:59:14.601Z,68.20
2018-12-14T18:01:43.128Z,68.00
2018-12-14T18:04:11.541Z,68.50
2018-12-14T18:06:39.958Z,68.60
2018-12-14T18:09:08.384Z,67.60
2018-12-14T18:11:36.809Z,68.00
2018-12-14T18:14:05.213Z,68.10
2018-12-14T18:16:33.634Z,68.60
2018-12-14T18:19:02.454Z,68.00
2018-12-14T18:21:30.905Z,67.70
2018-12-14T18:23:59.314Z,67.80
2018-12-14T18:26:27.735Z,68.00
2018-12-14T18:28:56.153Z,68.00
2018-12-14T18:31:24.576Z,67.70
2018-12-14T18:33:53.010Z,67.90
2018-12-14T18:36:21.398Z,67.40
2018-12-14T18:38:49.793Z,67.80
2018-12-14T18:41:18.165Z,67.90
2018-12-14T18:43:46.560Z,68.50
2018-12-14T18:46:14.960Z,68.20
2018-12-14T18:48:43.354Z,67.70
2018-12-14T18:51:11.725Z,67.30
2018-12-14T18:53:42.609Z,67.80
2018-12-14T18:56:10.964Z,67.50
2018-12-14T18:58:39.487Z,67.30
2018-12-14T19:01:07.951Z,67.40
2018-12-14T19:03:36.389Z,67.70
2018-12-14T19:06:04.970Z,67.70
2018-12-14T19:08:33.410Z,67.60
2018-12-14T19:11:01.891Z,67.70
2018-12-14T19:13:30.335Z,67.80
2018-12-14T19:15:59.740Z,67.70
2018-12-14T19:18:28.344Z,67.70
2018-12-14T19:20:56.790Z,67.50
2018-12-14T19:23:25.222Z,67.60
2018-12-14T19:25:53.690Z,67.30
2018-12-14T19:28:22.127Z,67.10
2018-12-14T19:30:50.834Z,67.40
2018-12-14T19:33:19.268Z,67.40
2018-12-14T19:35:47.731Z,67.20
2018-12-14T19:38:16.129Z,67.50
2018-12-14T19:40:44.586Z,67.60
2018-12-14T19:43:13.042Z,67.40
2018-12-14T19:45:41.457Z,67.00
2018-12-14T19:48:09.887Z,67.60
2018-12-14T19:50:38.297Z,67.30
2018-12-14T19:53:06.723Z,67.20
2018-12-14T19:55:35.170Z,66.80
2018-12-14T19:58:03.659Z,67.30
2018-12-14T20:00:32.209Z,67.10
2018-12-14T20:03:00.632Z,66.90
2018-12-14T20:05:29.050Z,67.30
2018-12-14T20:07:57.481Z,67.10
2018-12-14T20:10:25.886Z,67.40
2018-12-14T20:12:54.300Z,66.90
2018-12-14T20:15:22.730Z,66.90
2018-12-14T20:17:51.147Z,67.10
2018-12-14T20:20:19.687Z,66.90
2018-12-14T20:22:48.229Z,67.10
2018-12-14T20:25:16.629Z,67.20
2018-12-14T20:27:45.037Z,67.30
2018-12-14T20:30:13.449Z,67.70
2018-12-14T20:32:41.930Z,67.80
2018-12-14T20:35:10.495Z,67.80
2018-12-14T20:37:38.933Z,67.30
2018-12-14T20:40:07.554Z,68.00
2018-12-14T20:42:36.018Z,67.50
2018-12-14T20:45:05.319Z,68.00
2018-12-14T20:47:33.790Z,68.00
2018-12-14T20:50:02.263Z,68.20
2018-12-14T20:52:30.856Z,68.10
2018-12-14T20:54:59.320Z,68.00
2018-12-14T20:57:27.778Z,68.00
2018-12-14T20:59:56.231Z,68.00
2018-12-14T21:02:24.692Z,68.70
2018-12-14T21:04:53.121Z,68.40
2018-12-14T21:07:21.594Z,67.80
2018-12-14T21:09:50.026Z,68.30
2018-12-14T21:12:18.526Z,68.20
2018-12-14T21:14:50.773Z,68.60
2018-12-14T21:17:17.450Z,68.90
2018-12-14T21:19:45.902Z,68.90
2018-12-14T21:22:15.281Z,69.10
2018-12-14T21:24:43.908Z,69.10
2018-12-14T21:27:12.402Z,69.90
2018-12-14T21:29:40.851Z,69.20
2018-12-14T21:32:09.319Z,69.10
2018-12-14T21:34:37.792Z,68.80
2018-12-14T21:37:06.257Z,68.80
2018-12-14T21:39:34.733Z,68.40
2018-12-14T21:42:03.178Z,68.60
2018-12-14T21:44:31.687Z,69.10
2018-12-14T21:47:00.166Z,69.50
2018-12-14T21:49:28.629Z,68.90
2018-12-14T21:51:57.095Z,68.40
2018-12-14T21:54:25.578Z,68.30
2018-12-14T21:56:54.046Z,68.30
2018-12-14T21:59:22.514Z,68.70
2018-12-14T22:01:50.959Z,68.70
2018-12-14T22:04:19.406Z,67.80
2018-12-14T22:06:47.870Z,68.50
2018-12-14T22:09:16.355Z,68.60
2018-12-14T22:11:44.821Z,68.70
2018-12-14T22:14:13.313Z,68.20
2018-12-14T22:16:41.767Z,68.70
2018-12-14T22:19:10.287Z,67.90
2018-12-14T22:21:38.798Z,67.50
2018-12-14T22:24:07.271Z,67.50
2018-12-14T22:26:35.739Z,67.20
2018-12-14T22:29:04.239Z,67.60
2018-12-14T22:31:32.648Z,67.90
2018-12-14T22:34:01.075Z,68.10
2018-12-14T22:36:29.510Z,67.90
2018-12-14T22:38:57.924Z,67.60
2018-12-14T22:41:26.314Z,67.50
2018-12-14T22:43:54.855Z,68.20
2018-12-14T22:46:23.272Z,68.40
2018-12-14T22:48:51.708Z,68.00
2018-12-14T22:51:20.109Z,68.10
2018-12-14T22:53:48.677Z,68.20
2018-12-14T22:56:17.076Z,67.90
2018-12-14T22:58:45.513Z,68.60
2018-12-14T23:01:14.157Z,67.10
2018-12-14T23:03:42.582Z,67.90
2018-12-14T23:06:11.045Z,67.90
2018-12-14T23:08:39.542Z,67.50
2018-12-14T23:11:07.946Z,67.60
2018-12-14T23:13:36.379Z,67.70
2018-12-14T23:16:04.777Z,67.70
2018-12-14T23:18:33.275Z,68.60
2018-12-14T23:21:01.684Z,68.20
2018-12-14T23:23:30.104Z,68.60
2018-12-14T23:25:58.502Z,68.00
2018-12-14T23:28:26.916Z,67.90
2018-12-14T23:30:55.309Z,67.60
2018-12-14T23:33:23.746Z,67.80
2018-12-14T23:35:52.158Z,68.00
2018-12-14T23:38:20.615Z,67.80
2018-12-14T23:40:49.022Z,68.40
2018-12-14T23:43:17.497Z,67.90
2018-12-14T23:45:45.894Z,68.10
2018-12-14T23:48:14.314Z,68.10
2018-12-14T23:50:42.714Z,68.30
2018-12-14T23:53:11.131Z,67.60
2018-12-14T23:55:39.555Z,67.50
2018-12-14T23:58:07.975Z,67.50
